Time;durP1;ratioP1;P1;durP2;ratioP2;P2;SDS_P1;SDS_P2;PMS_P1;PMS_P2;Temp;Humidity;BMP_temperature;BMP_pressure;BME280_temperature;BME280_humidity;BME280_pressure;Samples;Min_cycle;Max_cycle;Signal;HPM_P1;HPM_P2
2024/04/01 00:00:25;;;;;;;35.90;8.00;;;;;;;13.05;54.00;97335.05;104044;1295;549342;-90
2024/04/01 00:03:56;;;;;;;36.30;7.20;;;;;;;13.03;54.08;97340.23;104678;1293;544904;-90
2024/04/01 00:07:39;;;;;;;32.60;9.50;;;;;;;12.99;54.19;97351.73;104574;1308;545004;-86
2024/04/01 00:11:15;;;;;;;43.20;10.40;;;;;;;12.95;54.14;97363.56;104541;1294;545013;-87
2024/04/01 00:14:52;;;;;;;30.30;8.90;;;;;;;12.92;54.28;97357.77;105003;1293;545041;-86
2024/04/01 00:18:42;;;;;;;39.90;8.90;;;;;;;12.91;54.30;97361.59;104733;1293;545779;-86
2024/04/01 00:22:08;;;;;;;34.90;7.40;;;;;;;12.91;54.34;97360.20;104409;1292;545009;-78
2024/04/01 00:25:46;;;;;;;35.00;7.70;;;;;;;12.92;54.42;97362.14;103434;1292;545213;-78
2024/04/01 00:29:23;;;;;;;26.00;6.60;;;;;;;12.95;54.52;97361.23;103470;1294;545623;-78
2024/04/01 00:33:03;;;;;;;26.30;7.30;;;;;;;13.00;54.60;97356.05;103397;1298;545009;-77
2024/04/01 00:36:39;;;;;;;29.20;7.10;;;;;;;12.99;54.61;97356.83;103748;1294;545047;-77
2024/04/01 00:40:17;;;;;;;33.50;7.30;;;;;;;12.99;54.67;97351.31;103236;1306;545956;-79
2024/04/01 00:43:54;;;;;;;29.30;6.80;;;;;;;12.96;54.78;97346.64;103518;1292;545113;-78
2024/04/01 00:47:52;;;;;;;29.00;5.60;;;;;;;12.94;54.60;97336.23;103144;1295;550008;-75
2024/04/01 00:51:10;;;;;;;25.90;5.60;;;;;;;12.92;54.64;97324.78;102954;1295;545036;-75
2024/04/01 00:54:46;;;;;;;22.30;4.60;;;;;;;12.91;54.60;97321.36;103511;1293;544927;-77
2024/04/01 00:58:29;;;;;;;23.00;5.30;;;;;;;12.91;54.65;97317.33;103219;1294;545006;-77
2024/04/01 01:02:04;;;;;;;25.40;5.30;;;;;;;12.90;54.62;97313.72;103510;1299;545044;-78
2024/04/01 01:05:46;;;;;;;19.20;5.70;;;;;;;12.88;54.53;97303.11;103464;1296;545062;-77
2024/04/01 01:09:24;;;;;;;24.30;5.20;;;;;;;12.85;54.73;97300.70;103453;1299;545473;-78
2024/04/01 01:13:01;;;;;;;30.60;6.40;;;;;;;12.84;54.73;97300.52;103535;1292;545103;-78
2024/04/01 01:16:37;;;;;;;25.20;5.60;;;;;;;12.81;54.84;97292.48;104037;1293;545012;-79
2024/04/01 01:20:19;;;;;;;16.00;4.90;;;;;;;12.78;54.83;97285.50;103491;1293;545604;-79
2024/04/01 01:23:56;;;;;;;25.10;4.70;;;;;;;12.77;54.91;97280.50;103472;1291;545619;-78
2024/04/01 01:27:35;;;;;;;23.80;4.50;;;;;;;12.74;54.85;97276.13;103368;1292;545046;-79
2024/04/01 01:31:12;;;;;;;25.10;4.80;;;;;;;12.72;55.02;97271.02;103330;1295;545129;-78
2024/04/01 01:34:49;;;;;;;17.70;3.90;;;;;;;12.75;54.91;97266.35;103260;1294;544972;-77
2024/04/01 01:38:25;;;;;;;17.70;4.00;;;;;;;12.77;55.02;97254.89;103682;1299;544906;-83
2024/04/01 01:42:07;;;;;;;16.60;3.70;;;;;;;12.79;54.91;97242.19;103779;1292;545592;-82
2024/04/01 01:45:44;;;;;;;21.70;4.50;;;;;;;12.83;55.02;97236.05;103792;1290;545616;-81
2024/04/01 01:49:23;;;;;;;15.50;3.80;;;;;;;12.90;54.91;97240.86;103603;1292;545131;-81
2024/04/01 01:52:57;;;;;;;16.20;3.70;;;;;;;12.96;55.01;97244.21;103575;1292;544923;-80
2024/04/01 01:56:39;;;;;;;18.20;3.70;;;;;;;12.98;54.84;97242.55;103983;1295;544936;-81
2024/04/01 02:00:17;;;;;;;12.80;3.60;;;;;;;13.02;54.91;97240.60;103686;1292;545940;-81
2024/04/01 02:03:52;;;;;;;16.20;3.50;;;;;;;13.02;54.98;97242.33;103515;1296;545043;-81
2024/04/01 02:07:34;;;;;;;12.40;2.70;;;;;;;13.03;54.93;97241.77;103607;1299;545228;-80
2024/04/01 02:11:15;;;;;;;15.60;3.60;;;;;;;13.01;55.00;97241.03;103486;1303;545611;-80
2024/04/01 02:14:57;;;;;;;17.30;3.50;;;;;;;13.00;55.04;97245.05;103624;1292;545097;-80
2024/04/01 02:18:35;;;;;;;16.30;3.20;;;;;;;12.98;54.94;97242.52;103607;1293;545052;-85
2024/04/01 02:22:14;;;;;;;16.90;4.40;;;;;;;12.97;54.93;97244.23;104301;1292;544966;-87
2024/04/01 02:25:50;;;;;;;16.50;3.70;;;;;;;12.96;54.93;97249.49;104125;1295;545083;-86
2024/04/01 02:29:25;;;;;;;15.10;3.70;;;;;;;12.94;55.00;97242.56;104806;1293;545123;-93
2024/04/01 02:33:05;;;;;;;15.60;4.00;;;;;;;12.92;55.01;97239.35;104492;1297;544966;-92
2024/04/01 02:36:44;;;;;;;15.10;3.60;;;;;;;12.90;55.07;97236.05;104380;1295;545375;-89
2024/04/01 02:40:24;;;;;;;17.00;3.90;;;;;;;12.86;55.14;97228.13;103411;1292;545103;-81
2024/04/01 02:44:05;;;;;;;11.60;3.30;;;;;;;12.83;55.20;97228.60;103352;1301;545161;-80
2024/04/01 02:47:43;;;;;;;12.90;3.40;;;;;;;12.81;55.25;97219.58;103356;1296;545782;-81
2024/04/01 02:51:21;;;;;;;14.00;3.70;;;;;;;12.80;55.08;97204.73;103494;1293;544938;-80
2024/04/01 02:55:02;;;;;;;9.90;3.00;;;;;;;12.77;55.35;97199.67;104114;1292;544956;-83
2024/04/01 02:58:36;;;;;;;14.80;3.20;;;;;;;12.75;55.35;97195.11;104068;1298;545405;-83
2024/04/01 03:02:12;;;;;;;10.00;3.10;;;;;;;12.73;55.22;97198.98;104292;1294;545247;-87
2024/04/01 03:05:57;;;;;;;11.70;2.80;;;;;;;12.72;55.26;97194.50;104391;1292;545014;-83
2024/04/01 03:09:31;;;;;;;13.30;3.30;;;;;;;12.71;55.33;97193.17;103532;1295;545240;-78
2024/04/01 03:13:08;;;;;;;10.10;3.10;;;;;;;12.70;55.40;97189.71;103582;1293;545010;-78
2024/04/01 03:16:46;;;;;;;13.90;3.30;;;;;;;12.71;55.27;97185.99;103271;1294;544991;-80
2024/04/01 03:20:25;;;;;;;11.50;3.20;;;;;;;12.71;55.21;97195.88;103204;1293;546359;-79
2024/04/01 03:24:02;;;;;;;11.00;3.00;;;;;;;12.70;55.29;97190.80;103314;1299;545035;-78
2024/04/01 03:27:40;;;;;;;11.70;2.90;;;;;;;12.69;55.31;97183.81;103346;1294;545580;-77
2024/04/01 03:31:17;;;;;;;9.70;2.70;;;;;;;12.69;55.41;97189.36;103633;1293;544946;-78
2024/04/01 03:34:53;;;;;;;14.70;3.10;;;;;;;12.68;55.64;97204.45;103719;1292;545094;-78
2024/04/01 03:38:33;;;;;;;11.30;2.70;;;;;;;12.67;55.45;97213.30;103566;1298;544957;-79
2024/04/01 03:42:14;;;;;;;12.60;3.10;;;;;;;12.68;55.51;97224.36;103382;1296;545038;-77
2024/04/01 03:45:59;;;;;;;12.80;3.00;;;;;;;12.69;55.50;97223.33;103432;1292;545001;-78
2024/04/01 03:49:30;;;;;;;15.30;4.20;;;;;;;12.70;55.63;97224.49;103427;1294;545963;-77
2024/04/01 03:53:07;;;;;;;14.00;3.50;;;;;;;12.71;55.59;97216.78;103371;1295;545037;-77
2024/04/01 03:56:43;;;;;;;14.00;3.70;;;;;;;12.73;55.46;97224.02;103328;1301;544989;-76
2024/04/01 04:00:24;;;;;;;13.00;3.40;;;;;;;12.75;55.46;97228.23;103407;1292;545681;-78
2024/04/01 04:04:02;;;;;;;12.70;3.00;;;;;;;12.78;55.43;97211.39;103201;1295;545247;-79
2024/04/01 04:07:41;;;;;;;11.00;2.90;;;;;;;12.81;55.32;97211.14;103357;1292;545885;-76
2024/04/01 04:11:17;;;;;;;12.10;3.50;;;;;;;12.85;55.48;97202.53;103397;1295;545498;-78
2024/04/01 04:14:55;;;;;;;8.20;4.40;;;;;;;12.87;55.53;97195.03;103721;1302;545105;-79
2024/04/01 04:18:31;;;;;;;10.40;5.20;;;;;;;12.89;55.68;97198.08;103417;1298;544978;-81
2024/04/01 04:22:12;;;;;;;24.70;7.60;;;;;;;12.91;55.55;97190.48;103423;1295;545024;-81
2024/04/01 04:25:51;;;;;;;11.00;4.00;;;;;;;12.92;55.63;97178.55;103475;1291;545186;-78
2024/04/01 04:29:28;;;;;;;7.90;3.00;;;;;;;12.94;55.67;97173.94;103351;1293;544973;-77
2024/04/01 04:33:09;;;;;;;10.30;3.40;;;;;;;12.95;55.67;97161.34;103443;1297;545155;-78
2024/04/01 04:36:41;;;;;;;14.70;3.10;;;;;;;12.93;55.73;97161.19;103415;1294;546037;-78
2024/04/01 04:40:39;;;;;;;12.60;3.50;;;;;;;12.92;55.78;97168.69;104504;1283;550825;-78
2024/04/01 04:44:01;;;;;;;8.00;2.80;;;;;;;12.87;55.88;97157.28;103659;1305;545222;-77
2024/04/01 04:47:46;;;;;;;10.40;4.00;;;;;;;12.84;55.91;97161.17;103285;1299;545541;-79
2024/04/01 05:01:55;;;;;;;7.80;2.60;;;;;;;13.08;55.85;97147.38;104415;1289;557389;-77
2024/04/01 05:05:08;;;;;;;12.00;3.10;;;;;;;13.35;55.60;97140.29;103601;1300;553272;-77
2024/04/01 05:08:25;;;;;;;10.70;2.70;;;;;;;13.42;55.75;97136.05;103830;1308;545294;-79
2024/04/01 05:11:59;;;;;;;11.50;2.70;;;;;;;13.45;55.68;97121.26;103389;1295;545303;-77
2024/04/01 05:15:49;;;;;;;12.90;3.10;;;;;;;13.51;55.54;97109.15;103486;1299;548010;-79
2024/04/01 05:19:23;;;;;;;13.40;3.30;;;;;;;13.60;55.53;97112.73;103716;1291;544772;-78
2024/04/01 05:23:02;;;;;;;14.60;4.30;;;;;;;13.73;55.48;97125.95;103379;1295;545206;-77
2024/04/01 05:26:38;;;;;;;15.10;4.00;;;;;;;13.80;55.57;97131.36;105934;1286;544782;-81
2024/04/01 05:41:05;;;;;;;11.90;3.60;;;;;;;14.24;55.57;97116.52;106105;1286;554190;-84
2024/04/01 05:43:55;;;;;;;12.10;3.50;;;;;;;14.49;55.58;97081.02;105364;1291;545078;-84
2024/04/01 05:47:38;;;;;;;10.80;3.20;;;;;;;14.45;55.35;97071.13;104260;1298;545654;-84
2024/04/01 05:51:09;;;;;;;8.90;3.50;;;;;;;14.42;55.37;97099.36;105178;1286;545045;-80
2024/04/01 07:14:17;;;;;;;16.30;4.10;;;;;;;18.74;55.79;97134.67;104093;1291;554534;-79
2024/04/01 07:17:07;;;;;;;17.10;4.20;;;;;;;19.14;54.90;97132.84;103525;1294;545042;-82
2024/04/01 07:20:48;;;;;;;16.80;3.70;;;;;;;19.21;55.22;97117.31;103554;1296;545443;-84
2024/04/01 07:24:21;;;;;;;16.40;3.30;;;;;;;19.37;55.33;97096.24;104064;1305;545502;-81
2024/04/01 07:28:02;;;;;;;13.10;3.40;;;;;;;19.51;55.04;97090.03;103781;1290;545069;-84
2024/04/01 07:31:40;;;;;;;17.60;3.50;;;;;;;19.59;54.70;97081.73;103453;1295;545111;-82
2024/04/01 07:35:19;;;;;;;13.90;3.90;;;;;;;19.62;54.10;97070.03;103571;1293;545002;-83
2024/04/01 07:38:55;;;;;;;15.50;4.30;;;;;;;19.56;53.42;97067.92;103590;1294;545408;-77
2024/04/01 07:42:34;;;;;;;16.10;4.00;;;;;;;19.48;54.59;97072.52;102951;1300;545060;-76
2024/04/01 07:46:11;;;;;;;18.20;5.20;;;;;;;19.31;53.36;97071.80;103492;1291;545014;-74
2024/04/01 07:49:49;;;;;;;14.90;4.10;;;;;;;18.93;54.63;97079.58;103298;1292;544975;-76
2024/04/01 07:53:26;;;;;;;21.40;4.90;;;;;;;18.92;54.87;97071.34;103624;1298;545567;-74
2024/04/01 07:57:05;;;;;;;18.90;4.70;;;;;;;18.85;54.40;97078.95;103217;1294;544694;-76
2024/04/01 08:00:41;;;;;;;21.30;5.00;;;;;;;18.82;54.38;97065.58;103181;1295;545003;-76
2024/04/01 08:04:22;;;;;;;26.00;5.00;;;;;;;18.87;55.47;97048.07;103400;1295;545567;-77
2024/04/01 08:07:57;;;;;;;21.80;4.50;;;;;;;19.02;55.18;97017.92;102975;1296;545649;-77
2024/04/01 08:11:35;;;;;;;21.90;5.10;;;;;;;19.12;55.74;96996.43;103369;1293;545603;-78
2024/04/01 08:15:13;;;;;;;17.10;4.50;;;;;;;19.22;56.31;96984.70;103329;1295;545730;-75
2024/04/01 08:18:51;;;;;;;20.90;5.00;;;;;;;19.28;56.09;96972.23;103481;1293;544973;-78
2024/04/01 08:22:28;;;;;;;15.70;4.10;;;;;;;19.49;56.55;96960.65;103391;1295;545513;-77
2024/04/01 08:26:04;;;;;;;24.00;5.40;;;;;;;19.75;56.26;96965.73;103834;1299;545113;-76
2024/04/01 08:29:48;;;;;;;21.70;5.00;;;;;;;19.69;55.43;96993.48;103317;1295;545570;-77
2024/04/01 08:33:25;;;;;;;23.90;5.50;;;;;;;19.73;55.81;96997.83;103357;1292;545666;-77
2024/04/01 08:37:03;;;;;;;33.30;6.40;;;;;;;19.74;55.52;97007.38;103187;1292;544944;-75
2024/04/01 08:40:56;;;;;;;22.10;5.30;;;;;;;19.68;55.32;97011.64;103921;1288;545451;-77
2024/04/01 08:44:20;;;;;;;26.00;6.10;;;;;;;19.66;55.24;97011.03;103235;1295;544982;-76
2024/04/01 08:48:02;;;;;;;26.10;4.90;;;;;;;19.73;55.66;97021.81;103162;1296;544997;-77
2024/04/01 08:51:46;;;;;;;23.20;4.70;;;;;;;19.90;56.44;97021.06;103154;1292;544984;-75
2024/04/01 08:55:24;;;;;;;24.70;5.60;;;;;;;20.18;56.56;97005.57;103135;1294;545036;-75
2024/04/01 08:59:00;;;;;;;31.60;7.60;;;;;;;20.46;56.31;97002.45;103151;1295;545027;-76
2024/04/01 09:02:37;;;;;;;27.90;5.80;;;;;;;20.64;55.88;96997.02;103163;1293;544964;-77
2024/04/01 09:06:16;;;;;;;27.40;6.60;;;;;;;20.71;54.99;96996.98;103204;1292;545548;-76
2024/04/01 09:20:20;;;;;;;32.80;8.00;;;;;;;21.26;55.35;96982.86;104090;1288;554262;-76
2024/04/01 09:23:10;;;;;;;29.20;6.40;;;;;;;21.57;55.01;96974.08;103115;1303;545026;-75
2024/04/01 09:26:51;;;;;;;25.60;5.30;;;;;;;21.66;55.32;96967.33;103540;1286;547272;-77
2024/04/01 09:30:24;;;;;;;24.00;5.10;;;;;;;21.80;55.27;96976.30;103144;1294;544892;-76
2024/04/01 09:34:03;;;;;;;31.00;7.30;;;;;;;22.00;55.14;96971.27;103489;1289;545915;-75
2024/04/01 09:37:40;;;;;;;31.10;7.00;;;;;;;22.09;54.24;96970.17;102986;1292;545072;-75
2024/04/01 09:41:18;;;;;;;41.60;12.60;;;;;;;22.28;54.71;96952.99;103271;1292;545029;-83
2024/04/01 09:44:55;;;;;;;19.50;5.30;;;;;;;22.47;54.87;96923.77;103317;1295;545103;-82
2024/04/01 09:48:35;;;;;;;44.10;14.70;;;;;;;22.69;54.86;96913.35;103345;1296;544975;-83
2024/04/01 09:52:10;;;;;;;28.90;8.50;;;;;;;22.85;53.93;96915.88;103300;1295;544976;-81
2024/04/01 09:56:01;;;;;;;22.90;6.20;;;;;;;23.02;54.30;96909.28;103551;1295;545177;-82
2024/04/01 09:59:55;;;;;;;79.60;28.40;;;;;;;23.20;53.54;96910.11;103269;1292;545123;-81
2024/04/01 10:03:30;;;;;;;26.60;6.70;;;;;;;23.36;52.56;96895.20;103567;1297;551864;-83
2024/04/01 10:07:19;;;;;;;28.80;6.50;;;;;;;23.39;52.56;96892.61;103261;1293;545876;-82
2024/04/01 10:10:53;;;;;;;29.90;6.60;;;;;;;23.46;52.70;96879.77;103608;1292;546004;-82
2024/04/01 10:14:19;;;;;;;30.00;6.60;;;;;;;23.60;52.70;96868.59;103520;1292;545693;-84
2024/04/01 10:17:47;;;;;;;26.80;6.30;;;;;;;23.74;52.51;96856.04;103101;1295;545697;-82
2024/04/01 10:21:22;;;;;;;32.60;6.30;;;;;;;23.77;52.29;96855.48;104242;1292;545242;-82
2024/04/01 10:24:57;;;;;;;37.50;6.90;;;;;;;23.75;51.64;96862.95;104326;1295;545038;-81
2024/04/01 10:29:23;;;;;;;31.90;6.00;;;;;;;23.56;51.32;96869.40;103115;1300;545037;-82
2024/04/01 10:32:45;;;;;;;26.00;5.90;;;;;;;23.53;50.60;96878.98;103462;1294;544747;-82
2024/04/01 10:35:58;;;;;;;30.40;7.10;;;;;;;23.63;50.45;96878.05;103592;1293;545027;-83
2024/04/01 10:39:59;;;;;;;33.60;7.10;;;;;;;23.93;50.47;96870.00;103191;1295;545032;-81
2024/04/01 10:43:24;;;;;;;26.50;6.00;;;;;;;24.27;49.70;96886.73;103285;1293;545072;-82
2024/04/01 10:46:47;;;;;;;28.10;5.90;;;;;;;24.54;49.50;96896.77;103095;1295;544946;-81
2024/04/01 10:50:42;;;;;;;17.00;5.00;;;;;;;24.74;48.78;96907.52;103260;1293;544938;-81
2024/04/01 10:54:00;;;;;;;24.60;5.00;;;;;;;25.02;48.91;96903.63;103378;1298;545073;-83
2024/04/01 10:57:36;;;;;;;32.00;6.20;;;;;;;25.45;48.54;96903.70;103330;1294;545072;-81
2024/04/01 11:01:36;;;;;;;15.90;4.50;;;;;;;25.87;47.70;96892.38;103250;1296;545190;-81
2024/04/01 11:05:06;;;;;;;21.90;4.50;;;;;;;26.05;47.25;96874.70;103306;1295;545755;-81
2024/04/01 11:08:45;;;;;;;22.30;5.80;;;;;;;26.32;47.09;96875.23;103649;1289;544978;-81
2024/04/01 11:12:09;;;;;;;22.10;5.90;;;;;;;26.43;46.59;96876.56;103492;1294;545684;-78
2024/04/01 11:15:55;;;;;;;18.50;4.50;;;;;;;26.38;46.14;96873.67;104070;1286;544912;-77
2024/04/01 11:19:54;;;;;;;20.70;4.90;;;;;;;26.37;45.86;96860.59;103078;1293;545607;-78
2024/04/01 11:23:10;;;;;;;25.20;6.70;;;;;;;26.33;45.57;96856.24;103238;1297;544983;-77
2024/04/01 11:27:29;;;;;;;24.30;5.00;;;;;;;26.32;45.11;96847.45;103477;1296;545145;-78
2024/04/01 11:31:17;;;;;;;23.90;5.80;;;;;;;26.26;44.72;96851.73;103399;1292;545031;-77
2024/04/01 11:35:07;;;;;;;28.70;4.50;;;;;;;26.17;44.39;96844.82;103322;1294;545016;-77
2024/04/01 11:38:53;;;;;;;26.20;4.80;;;;;;;26.25;44.12;96843.44;103381;1308;545584;-82
2024/04/01 11:42:06;;;;;;;25.50;4.80;;;;;;;26.36;43.81;96843.76;103675;1298;545569;-83
2024/04/01 11:56:08;;;;;;;23.10;4.90;;;;;;;26.93;43.92;96837.09;104351;1286;554278;-75
2024/04/01 11:58:58;;;;;;;22.20;5.10;;;;;;;27.24;43.42;96829.30;103021;1295;545512;-75
2024/04/01 12:02:34;;;;;;;20.50;4.90;;;;;;;27.29;43.31;96823.08;103098;1299;545081;-76
2024/04/01 12:06:16;;;;;;;32.40;5.30;;;;;;;27.36;43.29;96826.14;103186;1296;545966;-76
2024/04/01 12:09:56;;;;;;;21.60;4.80;;;;;;;27.47;43.16;96834.22;103766;1289;544743;-76
2024/04/01 12:13:41;;;;;;;23.80;5.40;;;;;;;27.56;42.57;96830.20;103440;1293;545097;-78
2024/04/01 12:17:20;;;;;;;25.90;5.40;;;;;;;27.65;42.39;96836.14;103272;1298;544979;-75
2024/04/01 12:20:53;;;;;;;22.90;5.90;;;;;;;27.58;42.06;96846.25;103326;1292;545517;-75
2024/04/01 12:24:33;;;;;;;24.10;5.40;;;;;;;27.41;41.78;96849.48;103428;1292;545552;-75
2024/04/01 12:28:15;;;;;;;32.90;6.60;;;;;;;27.26;41.53;96853.88;103152;1295;545063;-82
2024/04/01 12:31:51;;;;;;;22.00;4.60;;;;;;;27.15;42.06;96856.50;103354;1295;545031;-81
2024/04/01 12:35:40;;;;;;;23.40;4.90;;;;;;;27.18;41.89;96861.67;103295;1296;545081;-81
2024/04/01 12:39:22;;;;;;;24.30;5.00;;;;;;;27.11;41.90;96856.42;103225;1292;545472;-80
2024/04/01 12:43:00;;;;;;;36.10;5.80;;;;;;;27.13;42.03;96856.02;103383;1293;545040;-80
2024/04/01 12:46:42;;;;;;;22.80;4.90;;;;;;;27.12;41.66;96871.86;103368;1292;546758;-82
2024/04/01 12:50:15;;;;;;;29.50;6.10;;;;;;;27.07;41.76;96872.32;103623;1292;545588;-80
2024/04/01 12:54:14;;;;;;;25.10;5.60;;;;;;;26.92;41.22;96863.83;103432;1292;545570;-81
2024/04/01 12:57:55;;;;;;;27.60;5.90;;;;;;;26.79;41.16;96867.92;103603;1289;545096;-76
2024/04/01 13:01:22;;;;;;;23.90;4.90;;;;;;;26.68;41.29;96862.09;103293;1298;545111;-76
2024/04/01 13:05:21;;;;;;;28.40;5.10;;;;;;;26.50;41.07;96857.61;103387;1295;545088;-76
2024/04/01 13:09:10;;;;;;;20.50;5.30;;;;;;;26.31;41.14;96856.78;103858;1292;545370;-75
2024/04/01 13:13:25;;;;;;;28.70;5.50;;;;;;;26.20;41.28;96860.40;102989;1298;553224;-75
2024/04/01 13:16:48;;;;;;;29.10;5.60;;;;;;;25.95;41.01;96864.24;103037;1298;545079;-75
2024/04/01 13:20:20;;;;;;;26.50;5.80;;;;;;;25.75;41.08;96861.61;103101;1295;545190;-75
2024/04/01 13:24:08;;;;;;;25.50;5.50;;;;;;;25.48;40.65;96867.31;103369;1299;545721;-75
2024/04/01 13:27:59;;;;;;;27.60;5.80;;;;;;;25.41;41.14;96867.12;103157;1295;549262;-75
2024/04/01 13:31:19;;;;;;;30.90;5.80;;;;;;;25.31;41.37;96877.59;103158;1296;544985;-75
2024/04/01 13:34:59;;;;;;;24.60;5.70;;;;;;;25.19;41.18;96877.80;103036;1296;545034;-75
2024/04/01 13:38:34;;;;;;;27.60;6.10;;;;;;;25.05;41.22;96884.84;103132;1300;545192;-75
2024/04/01 13:42:01;;;;;;;28.80;5.90;;;;;;;24.93;42.08;96883.96;103276;1308;545672;-75
2024/04/01 13:46:02;;;;;;;28.70;5.90;;;;;;;24.79;41.70;96883.20;103770;1289;545642;-76
2024/04/01 13:50:04;;;;;;;29.40;6.40;;;;;;;24.51;41.65;96878.33;103174;1292;544957;-75
2024/04/01 13:53:42;;;;;;;31.30;5.90;;;;;;;24.32;41.40;96870.08;103010;1295;545580;-75
2024/04/01 13:57:13;;;;;;;33.30;6.80;;;;;;;24.16;41.65;96855.61;103400;1292;544953;-79
2024/04/01 14:01:34;;;;;;;35.40;6.50;;;;;;;24.07;42.21;96859.04;103107;1294;544996;-81
2024/04/01 14:04:55;;;;;;;36.00;7.70;;;;;;;23.93;41.77;96866.34;103421;1301;545046;-83
2024/04/01 14:08:49;;;;;;;35.20;7.50;;;;;;;23.74;42.02;96877.95;103509;1295;545612;-83
2024/04/01 14:12:40;;;;;;;39.40;7.10;;;;;;;23.63;42.00;96875.41;103316;1295;544994;-83
2024/04/01 14:16:12;;;;;;;33.20;7.00;;;;;;;23.57;41.92;96876.06;103154;1295;545036;-81
2024/04/01 14:19:40;;;;;;;33.10;7.20;;;;;;;23.51;42.04;96875.73;103595;1292;544981;-80
2024/04/01 14:23:20;;;;;;;24.40;6.30;;;;;;;23.45;42.03;96881.91;103308;1295;545013;-80
2024/04/01 14:27:02;;;;;;;31.10;6.60;;;;;;;23.38;42.52;96884.92;103199;1301;545070;-83
2024/04/01 14:30:41;;;;;;;29.70;6.30;;;;;;;23.38;42.47;96884.55;103355;1292;545465;-82
2024/04/01 14:34:19;;;;;;;28.70;6.50;;;;;;;23.33;42.48;96894.14;103383;1296;545005;-83
2024/04/01 14:37:56;;;;;;;34.40;7.60;;;;;;;23.32;42.56;96906.69;103432;1295;545783;-81
2024/04/01 14:41:34;;;;;;;38.10;8.10;;;;;;;23.29;42.33;96909.55;103298;1295;545599;-81
2024/04/01 14:45:11;;;;;;;31.60;6.20;;;;;;;23.27;42.58;96916.55;103298;1293;544927;-80
2024/04/01 14:48:49;;;;;;;38.70;8.70;;;;;;;23.26;42.61;96910.27;103172;1295;545045;-80
2024/04/01 14:52:26;;;;;;;35.50;7.20;;;;;;;23.14;42.16;96920.91;103099;1300;545080;-81
2024/04/01 14:56:04;;;;;;;33.60;6.50;;;;;;;23.17;43.23;96926.64;103398;1292;545790;-74
2024/04/01 14:59:42;;;;;;;32.40;6.00;;;;;;;23.19;42.76;96932.76;103096;1295;545068;-76
2024/04/01 15:03:21;;;;;;;45.30;7.70;;;;;;;23.17;42.60;96935.50;103220;1293;546075;-76
2024/04/01 15:06:57;;;;;;;38.50;7.40;;;;;;;23.19;42.96;96927.38;103036;1293;545396;-77
2024/04/01 15:10:55;;;;;;;34.60;6.70;;;;;;;23.16;43.12;96931.89;103438;1295;544998;-74
2024/04/01 15:14:19;;;;;;;33.40;7.40;;;;;;;23.10;43.06;96937.77;103066;1295;545012;-74
2024/04/01 15:18:03;;;;;;;47.10;8.30;;;;;;;23.03;43.26;96943.58;104155;1289;545431;-84
2024/04/01 15:21:39;;;;;;;34.80;7.40;;;;;;;22.95;42.83;96945.35;104908;1293;545685;-86
2024/04/01 15:25:16;;;;;;;37.80;8.50;;;;;;;22.86;42.97;96952.98;104624;1292;544942;-84
2024/04/01 15:28:54;;;;;;;24.70;7.50;;;;;;;22.77;43.14;96956.02;105158;1293;545017;-86
2024/04/01 15:32:30;;;;;;;17.40;5.20;;;;;;;22.65;43.21;96957.18;105485;1295;544839;-88
2024/04/01 15:36:15;;;;;;;17.30;3.50;;;;;;;22.46;43.33;96974.23;105067;1292;545516;-87
2024/04/01 15:39:50;;;;;;;12.00;3.30;;;;;;;22.11;43.50;96993.79;105137;1292;545621;-87
2024/04/01 15:54:04;;;;;;;16.20;3.80;;;;;;;21.60;44.41;97031.63;105749;1289;553452;-87
2024/04/01 15:56:54;;;;;;;14.70;3.70;;;;;;;21.07;44.98;97061.13;105118;1295;545022;-87
2024/04/01 16:00:36;;;;;;;17.50;3.50;;;;;;;20.56;45.22;97078.13;104953;1295;545115;-84
2024/04/01 16:04:14;;;;;;;15.00;3.70;;;;;;;20.16;45.42;97081.03;105198;1289;545076;-85
2024/04/01 16:08:05;;;;;;;10.40;3.30;;;;;;;19.85;45.65;97100.85;104822;1292;545452;-86
2024/04/01 16:11:29;;;;;;;12.00;2.70;;;;;;;19.55;45.79;97122.60;105523;1288;545211;-84
2024/04/01 16:15:05;;;;;;;8.90;3.50;;;;;;;19.33;46.13;97163.93;105045;1295;545025;-84
2024/04/01 16:18:55;;;;;;;11.60;2.60;;;;;;;19.23;46.20;97190.96;105215;1294;544946;-83
2024/04/01 16:22:51;;;;;;;9.90;2.80;;;;;;;19.19;46.82;97154.12;104666;1293;550196;-81
2024/04/01 16:26:01;;;;;;;13.30;4.20;;;;;;;18.89;47.34;97166.68;104225;1294;544916;-80
2024/04/01 16:29:45;;;;;;;12.30;4.10;;;;;;;18.58;47.81;97156.75;104592;1293;545091;-82
2024/04/01 16:33:21;;;;;;;11.90;4.50;;;;;;;18.30;48.18;97152.50;104560;1295;545076;-83
2024/04/01 16:47:32;;;;;;;17.60;9.10;;;;;;;17.99;48.83;97154.34;105938;1288;554237;-84
2024/04/01 16:50:23;;;;;;;10.70;5.50;;;;;;;17.88;49.06;97161.38;105298;1292;544932;-83
2024/04/01 16:54:19;;;;;;;7.20;2.10;;;;;;;17.84;49.21;97171.61;105375;1289;549158;-85
2024/04/01 16:57:58;;;;;;;6.10;2.40;;;;;;;17.78;49.59;97183.04;104976;1295;551952;-84
2024/04/01 17:01:14;;;;;;;7.90;2.80;;;;;;;17.67;49.79;97173.70;105369;1295;544988;-87
2024/04/01 17:04:55;;;;;;;3.70;2.30;;;;;;;17.60;50.25;97182.34;105947;1292;545055;-86
2024/04/01 17:08:37;;;;;;;7.00;3.00;;;;;;;17.54;50.38;97188.52;105040;1294;545133;-86
2024/04/01 17:12:12;;;;;;;6.10;2.90;;;;;;;17.49;50.80;97184.27;105024;1289;544945;-80
2024/04/01 17:15:58;;;;;;;6.80;3.20;;;;;;;17.42;50.80;97201.63;103501;1298;545058;-79
2024/04/01 17:19:36;;;;;;;6.10;2.50;;;;;;;17.34;50.95;97229.67;103923;1294;545764;-77
2024/04/01 17:33:35;;;;;;;14.80;7.30;;;;;;;17.36;50.80;97238.56;106581;1286;554917;-83
2024/04/01 17:36:35;;;;;;;35.10;18.10;;;;;;;17.29;50.99;97248.70;105601;1295;545037;-82
2024/04/01 17:40:07;;;;;;;43.30;22.00;;;;;;;17.13;51.14;97254.63;105111;1295;546026;-85
2024/04/01 17:43:42;;;;;;;30.80;17.10;;;;;;;17.01;51.41;97245.34;105830;1288;544680;-85
2024/04/01 17:47:27;;;;;;;16.40;7.10;;;;;;;16.92;51.65;97234.02;105114;1292;545509;-87
2024/04/01 17:51:01;;;;;;;20.60;11.10;;;;;;;16.81;51.86;97226.81;105381;1293;545094;-87
2024/04/01 17:54:42;;;;;;;11.60;7.10;;;;;;;16.72;52.09;97232.42;105631;1293;545188;-87
2024/04/01 17:58:22;;;;;;;8.10;5.50;;;;;;;16.68;52.27;97244.13;105459;1295;545227;-87
2024/04/01 18:02:13;;;;;;;10.30;4.80;;;;;;;16.62;52.59;97248.48;105528;1292;545558;-87
2024/04/01 18:05:39;;;;;;;7.00;4.30;;;;;;;16.53;52.82;97259.73;105623;1292;545884;-86
2024/04/01 18:09:23;;;;;;;7.90;4.30;;;;;;;16.45;53.04;97263.05;105168;1294;544982;-85
2024/04/01 18:13:07;;;;;;;8.60;4.80;;;;;;;16.40;53.08;97268.13;105170;1295;545989;-82
2024/04/01 18:16:38;;;;;;;10.10;5.40;;;;;;;16.35;53.35;97273.04;104963;1293;545513;-81
2024/04/01 18:20:15;;;;;;;7.70;4.10;;;;;;;16.29;53.67;97292.45;103304;1295;545473;-80
2024/04/01 19:16:03;;;;;;;4.80;3.30;;;;;;;16.60;54.45;97347.33;106984;1266;556671;-78
2024/04/01 19:18:55;;;;;;;4.10;3.00;;;;;;;16.38;54.51;97357.13;103229;1295;544972;-79
2024/04/01 19:22:31;;;;;;;5.30;2.40;;;;;;;16.26;54.61;97356.29;103230;1292;545377;-78
2024/04/01 19:26:08;;;;;;;2.40;1.80;;;;;;;16.14;54.66;97365.65;103189;1295;546064;-78
2024/04/01 19:29:45;;;;;;;3.00;2.30;;;;;;;16.06;54.88;97362.73;103279;1292;544998;-78
2024/04/01 19:33:22;;;;;;;2.20;2.00;;;;;;;15.97;54.50;97364.44;103693;1289;544791;-79
2024/04/01 19:37:03;;;;;;;2.00;1.70;;;;;;;15.86;55.02;97361.34;103316;1292;545607;-79
2024/04/01 19:40:41;;;;;;;2.50;2.00;;;;;;;15.83;55.32;97363.64;103242;1292;544964;-78
2024/04/01 19:44:21;;;;;;;1.80;1.40;;;;;;;15.75;55.35;97363.73;103126;1299;545073;-73
2024/04/01 19:47:56;;;;;;;3.30;1.40;;;;;;;15.66;55.37;97375.48;103415;1292;545369;-74
2024/04/01 19:51:35;;;;;;;2.50;1.50;;;;;;;15.54;55.68;97378.92;103519;1302;545174;-73